Hillsdale, Michigan
Current Conditions -  °F | °C
As of 4:35 PM on Saturday 22 Nov 2014 (Local Time) from KJYM Reporting Station
Overcast Overcast  
Wind Chill: 42°   Ceiling: 2200
Heat Index: 46°   Visibility: 7mi
Dew Point: 45°   Wind: 8mph
Humidity: 95%   Direction: 220°SW
Pressure: 29.94"   Gusts: NA
Location:  41.92°N, 84.63°W
Report Text: KJYM 222135Z AUTO 22007KT 7SM OVC022 08/07 A2994 RMK AO2 T00790072
Loading
Personal Weather Stations






























Interactive Weather Map New forecast layout! Learn more

10-Day Weather Forecast

Advertisements
Track Severe Weather on mobile